Time;durP1;ratioP1;P1;durP2;ratioP2;P2;SDS_P1;SDS_P2;PMS_P1;PMS_P2;Temp;Humidity;BMP_temperature;BMP_pressure;BME280_temperature;BME280_humidity;BME280_pressure;Samples;Min_cycle;Max_cycle;Signal;HPM_P1;HPM_P2
2023/04/14 00:02:15;;;;;;;0.25;0.25;;;6.20;99.90;;;;;;5001082;28;20390;-82
2023/04/14 00:04:42;;;;;;;0.32;0.30;;;6.20;99.90;;;;;;5020736;28;20965;-82
2023/04/14 00:07:09;;;;;;;0.57;0.32;;;6.20;99.90;;;;;;5005368;28;20049;-82
2023/04/14 00:09:36;;;;;;;0.82;0.50;;;6.20;99.90;;;;;;5003947;28;20150;-81
2023/04/14 00:12:05;;;;;;;0.40;0.40;;;6.20;99.90;;;;;;5005187;28;20103;-82
2023/04/14 00:14:32;;;;;;;0.32;0.32;;;6.20;99.90;;;;;;5001080;28;20085;-82
2023/04/14 00:16:59;;;;;;;0.45;0.40;;;6.20;99.90;;;;;;4969377;28;20058;-82
2023/04/14 00:19:26;;;;;;;0.20;0.20;;;6.20;99.90;;;;;;4994405;28;20057;-82
2023/04/14 00:21:53;;;;;;;0.40;0.40;;;6.20;99.90;;;;;;5015051;28;20413;-81
2023/04/14 00:24:20;;;;;;;0.30;0.30;;;6.10;99.90;;;;;;4998389;28;20876;-82
2023/04/14 00:26:47;;;;;;;0.40;0.38;;;6.10;99.90;;;;;;5004631;28;20049;-82
2023/04/14 00:29:14;;;;;;;0.40;0.40;;;6.10;99.90;;;;;;5005462;28;20140;-81
2023/04/14 00:31:41;;;;;;;0.52;0.38;;;6.10;99.90;;;;;;5001409;28;20132;-82
2023/04/14 00:34:08;;;;;;;0.22;0.20;;;6.00;99.90;;;;;;4994346;28;20446;-82
2023/04/14 00:36:35;;;;;;;0.30;0.30;;;6.00;99.90;;;;;;4989098;28;20170;-83
2023/04/14 00:39:03;;;;;;;0.20;0.20;;;6.00;99.90;;;;;;5000131;28;20478;-82
2023/04/14 00:41:33;;;;;;;0.57;0.30;;;5.90;99.90;;;;;;5003287;28;20580;-81
2023/04/14 00:44:03;;;;;;;0.40;0.40;;;5.90;99.90;;;;;;5000789;28;20059;-82
2023/04/14 00:46:30;;;;;;;0.65;0.45;;;5.90;99.90;;;;;;4985746;28;20354;-82
2023/04/14 00:48:57;;;;;;;0.47;0.47;;;5.90;99.90;;;;;;4968856;28;20201;-82
2023/04/14 00:51:26;;;;;;;0.50;0.40;;;5.90;99.90;;;;;;4986077;28;20176;-81
2023/04/14 00:53:53;;;;;;;0.52;0.52;;;5.90;99.90;;;;;;4983768;28;20053;-81
2023/04/14 00:56:20;;;;;;;0.25;0.25;;;5.90;99.90;;;;;;4984684;28;20445;-83
2023/04/14 00:58:47;;;;;;;0.28;0.28;;;5.90;99.90;;;;;;4984841;28;20054;-83
2023/04/14 01:01:14;;;;;;;0.30;0.30;;;5.90;99.90;;;;;;4984301;28;20490;-82
2023/04/14 01:03:41;;;;;;;0.40;0.40;;;6.00;99.90;;;;;;5021882;28;20099;-82
2023/04/14 01:06:08;;;;;;;0.43;0.40;;;6.00;99.90;;;;;;5019946;28;20077;-83
2023/04/14 01:08:35;;;;;;;0.75;0.60;;;6.00;99.90;;;;;;5002619;28;20206;-82
2023/04/14 01:11:12;;;;;;;0.52;0.47;;;6.10;99.90;;;;;;5000289;28;20089;-82
2023/04/14 01:14:21;;;;;;;0.40;0.40;;;6.20;99.90;;;;;;5018384;28;20489;-83
2023/04/14 01:16:49;;;;;;;1.70;0.65;;;6.20;99.90;;;;;;5002316;28;20053;-81
2023/04/14 01:19:50;;;;;;;0.40;0.40;;;6.20;99.90;;;;;;5003669;28;20573;-82
2023/04/14 01:22:17;;;;;;;0.65;0.43;;;6.20;99.90;;;;;;5006329;28;20481;-83
2023/04/14 01:24:53;;;;;;;0.35;0.35;;;6.30;99.90;;;;;;5018055;28;20584;-84
2023/04/14 01:27:26;;;;;;;0.50;0.50;;;6.30;99.90;;;;;;5019811;28;20073;-83
2023/04/14 01:30:21;;;;;;;1.65;0.52;;;6.30;99.90;;;;;;5017974;28;20120;-83
2023/04/14 01:32:48;;;;;;;1.05;0.40;;;6.30;99.90;;;;;;5016156;28;20185;-83
2023/04/14 01:35:20;;;;;;;0.43;0.43;;;6.30;99.90;;;;;;5022351;28;20057;-83
2023/04/14 01:37:48;;;;;;;0.30;0.30;;;6.40;99.90;;;;;;5022574;28;20521;-83
2023/04/14 01:40:16;;;;;;;0.35;0.20;;;6.40;99.90;;;;;;5005402;28;20133;-83
2023/04/14 01:42:47;;;;;;;0.85;0.52;;;6.40;99.90;;;;;;5005432;28;20045;-83
2023/04/14 01:45:19;;;;;;;0.40;0.40;;;6.50;99.90;;;;;;5017244;28;20081;-83
2023/04/14 01:47:46;;;;;;;0.47;0.40;;;6.40;99.90;;;;;;5005212;28;20052;-83
2023/04/14 01:50:13;;;;;;;0.40;0.40;;;6.50;99.90;;;;;;5006107;28;20060;-82
2023/04/14 01:52:42;;;;;;;0.47;0.47;;;6.50;99.90;;;;;;5006600;28;20552;-83
2023/04/14 01:55:09;;;;;;;0.40;0.40;;;6.50;99.90;;;;;;5005286;28;20049;-82
2023/04/14 01:57:36;;;;;;;0.47;0.47;;;6.40;99.90;;;;;;5005354;28;20112;-83
2023/04/14 02:00:03;;;;;;;0.60;0.60;;;6.50;99.90;;;;;;5006031;28;20149;-83
2023/04/14 02:02:30;;;;;;;0.95;0.47;;;6.50;99.90;;;;;;5022524;28;20053;-83
2023/04/14 02:04:58;;;;;;;1.13;0.60;;;6.40;99.90;;;;;;5004938;28;20160;-83
2023/04/14 02:07:25;;;;;;;0.50;0.45;;;6.40;99.90;;;;;;5004978;28;20398;-83
2023/04/14 02:09:52;;;;;;;1.67;0.75;;;6.40;99.90;;;;;;5004554;28;20041;-83
2023/04/14 02:12:19;;;;;;;0.93;0.50;;;6.40;99.90;;;;;;5006447;28;20131;-83
2023/04/14 02:14:46;;;;;;;1.35;0.80;;;6.40;99.90;;;;;;4985131;28;20132;-83
2023/04/14 02:17:13;;;;;;;1.27;0.85;;;6.40;99.90;;;;;;5021624;28;20045;-82
2023/04/14 02:19:40;;;;;;;2.50;1.17;;;6.40;99.90;;;;;;5021486;28;20063;-83
2023/04/14 02:22:07;;;;;;;1.30;0.95;;;6.30;99.90;;;;;;5005478;28;20129;-79
2023/04/14 02:24:34;;;;;;;1.70;1.00;;;6.30;99.90;;;;;;5003238;28;20050;-80
2023/04/14 02:27:13;;;;;;;1.63;0.90;;;6.30;99.90;;;;;;5021870;28;20155;-83
2023/04/14 02:29:41;;;;;;;1.30;0.93;;;6.30;99.90;;;;;;5004791;28;20053;-82
2023/04/14 02:32:22;;;;;;;2.17;0.95;;;6.30;99.90;;;;;;5021230;28;20144;-83
2023/04/14 02:35:17;;;;;;;1.38;1.00;;;6.30;99.90;;;;;;5005399;28;20073;-82
2023/04/14 02:37:47;;;;;;;2.70;1.00;;;6.30;99.90;;;;;;5003777;28;20845;-82
2023/04/14 02:40:23;;;;;;;1.70;1.00;;;6.30;99.90;;;;;;5004276;28;20154;-82
2023/04/14 02:42:55;;;;;;;1.27;0.88;;;6.30;99.90;;;;;;5014332;28;20045;-83
2023/04/14 02:45:22;;;;;;;1.92;1.00;;;6.30;99.90;;;;;;5005033;28;20056;-83
2023/04/14 02:47:56;;;;;;;1.95;1.00;;;6.30;99.90;;;;;;5005495;28;20357;-83
2023/04/14 02:50:23;;;;;;;;;;;6.30;99.90;;;;;;5019884;28;20052;-82
2023/04/14 02:52:50;;;;;;;0.60;0.50;;;6.30;99.90;;;;;;5021930;28;20384;-83
2023/04/14 02:55:20;;;;;;;0.77;0.50;;;6.30;99.90;;;;;;5003674;28;20144;-83
2023/04/14 02:57:48;;;;;;;0.90;0.60;;;6.30;99.90;;;;;;4971563;28;20123;-82
2023/04/14 03:00:16;;;;;;;1.48;0.82;;;6.30;99.90;;;;;;5005310;28;20073;-83
2023/04/14 03:02:44;;;;;;;2.85;1.23;;;6.20;99.90;;;;;;4989373;28;20069;-83
2023/04/14 03:05:11;;;;;;;1.73;0.93;;;6.30;99.90;;;;;;5020896;28;20341;-82
2023/04/14 03:07:38;;;;;;;1.55;1.05;;;6.20;99.90;;;;;;5021731;28;20049;-82
2023/04/14 03:10:05;;;;;;;2.63;1.20;;;6.20;99.90;;;;;;5003415;28;20081;-82
2023/04/14 03:12:32;;;;;;;2.13;0.80;;;6.20;99.90;;;;;;5004552;28;20050;-83
2023/04/14 03:14:59;;;;;;;1.48;0.77;;;6.20;99.90;;;;;;5004688;28;20408;-82
2023/04/14 03:17:26;;;;;;;2.00;1.23;;;6.20;99.90;;;;;;5021584;28;20103;-83
2023/04/14 03:19:53;;;;;;;1.50;0.85;;;6.20;99.90;;;;;;5005792;28;20115;-82
2023/04/14 03:22:20;;;;;;;2.45;1.10;;;6.20;99.90;;;;;;5005072;28;20062;-83
2023/04/14 03:24:47;;;;;;;1.58;0.85;;;6.20;99.90;;;;;;5004910;28;20053;-83
2023/04/14 03:27:20;;;;;;;2.35;1.02;;;6.20;99.90;;;;;;5001916;28;20074;-83
2023/04/14 03:29:54;;;;;;;1.85;1.00;;;6.20;99.90;;;;;;5002339;28;20149;-83
2023/04/14 03:32:22;;;;;;;2.20;1.15;;;6.20;99.90;;;;;;5007973;28;20526;-83
2023/04/14 03:34:53;;;;;;;2.05;1.15;;;6.20;99.90;;;;;;5004865;28;20129;-83
2023/04/14 03:37:23;;;;;;;2.25;1.00;;;6.20;99.90;;;;;;5004615;28;20572;-83
2023/04/14 03:39:51;;;;;;;1.92;0.88;;;6.20;99.90;;;;;;5007736;28;20478;-82
2023/04/14 03:42:21;;;;;;;1.25;0.90;;;6.20;99.90;;;;;;5008629;28;20045;-82
2023/04/14 03:44:52;;;;;;;1.30;0.70;;;6.10;99.90;;;;;;5007243;28;20061;-82
2023/04/14 03:47:21;;;;;;;1.27;0.90;;;6.10;99.90;;;;;;5008138;28;20053;-83
2023/04/14 03:49:49;;;;;;;1.10;0.60;;;6.10;99.90;;;;;;5020562;28;20050;-82
2023/04/14 03:52:16;;;;;;;0.88;0.60;;;6.10;99.90;;;;;;5009644;28;20487;-82
2023/04/14 03:54:43;;;;;;;1.40;0.70;;;6.10;99.90;;;;;;5007040;28;20056;-83
2023/04/14 03:57:10;;;;;;;0.60;0.45;;;6.00;99.90;;;;;;5023551;28;20461;-83
2023/04/14 03:59:38;;;;;;;0.60;0.60;;;6.00;99.90;;;;;;5007830;28;20069;-83
2023/04/14 04:02:06;;;;;;;0.63;0.57;;;6.00;99.90;;;;;;5023126;28;20049;-83
2023/04/14 04:04:34;;;;;;;0.90;0.40;;;6.00;99.90;;;;;;5023954;28;20137;-83
2023/04/14 04:07:01;;;;;;;1.13;0.70;;;5.90;99.90;;;;;;5007695;28;20374;-82
2023/04/14 04:09:28;;;;;;;0.55;0.50;;;5.90;99.90;;;;;;5022883;28;20045;-83
2023/04/14 04:11:58;;;;;;;0.43;0.40;;;5.90;99.90;;;;;;5024294;28;20064;-83
2023/04/14 04:14:26;;;;;;;0.50;0.50;;;5.80;99.90;;;;;;5008026;28;20132;-82
2023/04/14 04:16:53;;;;;;;0.30;0.30;;;5.80;99.90;;;;;;5006991;28;20485;-82
2023/04/14 04:19:21;;;;;;;0.73;0.60;;;5.80;99.90;;;;;;5024589;28;20466;-83
2023/04/14 04:21:48;;;;;;;1.20;0.30;;;5.80;99.90;;;;;;5024030;28;20103;-82
2023/04/14 04:24:17;;;;;;;0.50;0.50;;;5.70;99.90;;;;;;5023869;28;20054;-82
2023/04/14 04:26:43;;;;;;;0.35;0.30;;;5.70;99.90;;;;;;5008679;28;20076;-83
2023/04/14 04:29:11;;;;;;;0.70;0.50;;;5.70;99.90;;;;;;5008227;28;20111;-83
2023/04/14 04:31:38;;;;;;;1.15;0.68;;;5.60;99.90;;;;;;5024651;28;20052;-82
2023/04/14 04:34:05;;;;;;;0.73;0.47;;;5.60;99.90;;;;;;5007404;28;20049;-83
2023/04/14 04:36:32;;;;;;;1.27;0.70;;;5.60;99.90;;;;;;5006711;28;20093;-83
2023/04/14 04:38:59;;;;;;;0.50;0.40;;;5.60;99.90;;;;;;5005077;28;20045;-83
2023/04/14 04:41:28;;;;;;;0.43;0.43;;;5.60;99.90;;;;;;5023321;28;20045;-83
2023/04/14 04:43:55;;;;;;;0.50;0.50;;;5.60;99.90;;;;;;5006071;28;20046;-82
2023/04/14 04:46:31;;;;;;;0.32;0.32;;;5.60;99.90;;;;;;5007012;28;20132;-82
2023/04/14 04:48:58;;;;;;;0.50;0.50;;;5.60;99.90;;;;;;5020917;28;20152;-82
2023/04/14 04:51:25;;;;;;;0.45;0.40;;;5.60;99.90;;;;;;5022652;28;20137;-82
2023/04/14 04:53:52;;;;;;;0.70;0.40;;;5.60;99.90;;;;;;5005706;28;20761;-83
2023/04/14 04:56:20;;;;;;;0.40;0.40;;;5.60;99.90;;;;;;5007180;28;20160;-83
2023/04/14 04:58:47;;;;;;;0.38;0.38;;;5.60;99.90;;;;;;5023915;28;20053;-85
2023/04/14 05:01:15;;;;;;;1.05;0.50;;;5.60;99.90;;;;;;5001725;28;20608;-83
2023/04/14 05:03:42;;;;;;;1.55;0.75;;;5.60;99.90;;;;;;5001969;28;20045;-84
2023/04/14 05:06:09;;;;;;;1.35;0.70;;;5.60;99.90;;;;;;5019986;28;20061;-84
2023/04/14 05:08:36;;;;;;;0.40;0.40;;;5.70;99.90;;;;;;5018671;28;20055;-83
2023/04/14 05:11:03;;;;;;;1.02;0.70;;;5.70;99.90;;;;;;5019988;28;20049;-82
2023/04/14 05:13:31;;;;;;;0.50;0.50;;;5.70;99.90;;;;;;5003281;28;20215;-82
2023/04/14 05:16:04;;;;;;;0.70;0.63;;;5.70;99.90;;;;;;5003386;28;20061;-82
2023/04/14 05:18:31;;;;;;;1.25;0.80;;;5.80;99.90;;;;;;5017077;28;20045;-81
2023/04/14 05:21:08;;;;;;;0.70;0.60;;;5.80;99.90;;;;;;5018570;28;20089;-82
2023/04/14 05:23:36;;;;;;;1.30;0.60;;;5.80;99.90;;;;;;4982125;28;20094;-82
2023/04/14 05:26:03;;;;;;;1.25;0.65;;;5.80;99.90;;;;;;5014320;28;20103;-83
2023/04/14 05:28:51;;;;;;;0.65;0.57;;;5.80;99.90;;;;;;5018939;28;20045;-83
2023/04/14 05:31:18;;;;;;;1.45;0.57;;;5.90;99.90;;;;;;5018209;28;20053;-83
2023/04/14 05:33:46;;;;;;;0.63;0.50;;;5.90;99.90;;;;;;5000154;28;20665;-82
2023/04/14 05:36:13;;;;;;;0.50;0.50;;;6.00;99.90;;;;;;5002749;28;20139;-80
2023/04/14 05:38:40;;;;;;;0.90;0.43;;;6.10;99.90;;;;;;5017349;28;20135;-81
2023/04/14 05:41:07;;;;;;;0.85;0.50;;;6.10;99.90;;;;;;5016247;28;20055;-81
2023/04/14 05:43:34;;;;;;;0.75;0.50;;;6.20;99.90;;;;;;4996590;28;20520;-81
2023/04/14 05:46:01;;;;;;;0.85;0.50;;;6.30;99.90;;;;;;5001715;28;20457;-83
2023/04/14 05:48:29;;;;;;;0.70;0.70;;;6.30;99.90;;;;;;4999992;28;20121;-84
2023/04/14 05:50:56;;;;;;;1.10;0.60;;;6.40;99.90;;;;;;4989006;28;20057;-83
2023/04/14 05:53:26;;;;;;;1.10;0.88;;;6.40;99.90;;;;;;5003520;28;20059;-83
2023/04/14 05:55:55;;;;;;;1.80;0.70;;;6.40;99.90;;;;;;5001681;28;20434;-83
2023/04/14 05:58:25;;;;;;;0.45;0.40;;;6.50;99.90;;;;;;5009246;28;20053;-84
2023/04/14 06:00:54;;;;;;;0.52;0.52;;;6.60;99.90;;;;;;5001189;28;20187;-84
2023/04/14 06:03:21;;;;;;;0.60;0.50;;;6.60;99.90;;;;;;5009931;28;20056;-83
2023/04/14 06:05:49;;;;;;;0.77;0.77;;;6.70;99.90;;;;;;5002336;28;20057;-84
2023/04/14 06:08:17;;;;;;;1.17;0.70;;;6.80;99.90;;;;;;4999337;28;20409;-83
2023/04/14 06:10:45;;;;;;;0.50;0.50;;;6.80;99.90;;;;;;4999768;28;20049;-84
2023/04/14 06:13:15;;;;;;;0.75;0.63;;;6.90;99.90;;;;;;5001595;28;20053;-84
2023/04/14 06:15:42;;;;;;;1.83;0.70;;;7.00;99.90;;;;;;5001223;28;22259;-83
2023/04/14 06:18:09;;;;;;;0.65;0.60;;;7.00;99.90;;;;;;5002039;28;20119;-83
2023/04/14 06:20:38;;;;;;;0.52;0.50;;;7.10;99.90;;;;;;4999744;28;20052;-83
2023/04/14 06:23:05;;;;;;;0.52;0.45;;;7.20;99.90;;;;;;5001324;28;20069;-84
2023/04/14 06:25:35;;;;;;;0.60;0.55;;;7.20;99.90;;;;;;4993530;28;20049;-83
2023/04/14 06:28:02;;;;;;;1.83;0.80;;;7.30;99.90;;;;;;5003819;28;20053;-83
2023/04/14 06:30:31;;;;;;;1.67;0.65;;;7.40;99.90;;;;;;4998098;28;20152;-84
2023/04/14 06:33:02;;;;;;;0.55;0.52;;;7.40;99.90;;;;;;5000359;28;20069;-85
2023/04/14 06:35:30;;;;;;;0.70;0.60;;;7.50;99.90;;;;;;4984035;28;20053;-84
2023/04/14 06:38:01;;;;;;;0.85;0.55;;;7.60;99.90;;;;;;4984444;28;20053;-85
2023/04/14 06:40:28;;;;;;;0.60;0.60;;;7.80;99.90;;;;;;4984109;28;20046;-83
2023/04/14 06:42:55;;;;;;;2.15;0.60;;;7.80;99.90;;;;;;4996213;28;20508;-83
2023/04/14 06:45:22;;;;;;;0.55;0.50;;;8.00;99.90;;;;;;5000186;28;20104;-84
2023/04/14 06:47:49;;;;;;;1.63;0.88;;;8.10;99.90;;;;;;4999611;28;20073;-84
2023/04/14 06:50:16;;;;;;;2.00;1.15;;;8.20;99.90;;;;;;5015367;28;20059;-84
2023/04/14 06:52:43;;;;;;;1.85;0.70;;;8.20;99.90;;;;;;5004560;28;20119;-84
2023/04/14 06:55:10;;;;;;;1.60;0.60;;;8.30;99.90;;;;;;5001379;28;20148;-84
2023/04/14 06:57:37;;;;;;;1.65;0.80;;;8.40;99.90;;;;;;5003219;28;20132;-84
2023/04/14 07:00:05;;;;;;;1.67;0.70;;;8.50;99.90;;;;;;5003370;28;20582;-84
2023/04/14 07:02:33;;;;;;;1.13;0.60;;;8.60;99.90;;;;;;5003797;28;20553;-84
2023/04/14 07:05:00;;;;;;;2.63;0.93;;;8.70;99.90;;;;;;5003163;28;20115;-83
2023/04/14 07:07:27;;;;;;;1.05;0.70;;;8.80;99.90;;;;;;5009617;28;20077;-85
2023/04/14 07:09:54;;;;;;;1.00;0.60;;;8.80;99.90;;;;;;5002303;28;20068;-84
2023/04/14 07:12:21;;;;;;;1.58;0.73;;;8.90;99.90;;;;;;5001734;28;20520;-85
2023/04/14 07:14:51;;;;;;;2.15;0.70;;;8.90;99.90;;;;;;5015236;28;20469;-85
2023/04/14 07:17:18;;;;;;;1.08;0.63;;;8.90;99.90;;;;;;4988683;28;20219;-85
2023/04/14 07:19:46;;;;;;;1.33;0.63;;;8.90;99.90;;;;;;4971904;28;20057;-84
2023/04/14 07:22:13;;;;;;;0.90;0.70;;;9.00;99.90;;;;;;4984422;28;20132;-84
2023/04/14 07:24:40;;;;;;;1.23;0.65;;;9.00;99.90;;;;;;5008319;28;20072;-85
2023/04/14 07:27:13;;;;;;;0.80;0.60;;;9.00;99.90;;;;;;5009474;28;20125;-87
2023/04/14 07:29:41;;;;;;;1.27;0.70;;;9.10;99.90;;;;;;5007823;28;20624;-84
2023/04/14 07:32:08;;;;;;;1.70;0.90;;;9.20;99.90;;;;;;5007371;28;20053;-85
2023/04/14 07:34:35;;;;;;;1.10;0.73;;;9.30;99.90;;;;;;5007426;28;20129;-85
2023/04/14 07:37:03;;;;;;;1.58;0.90;;;9.30;99.90;;;;;;4990800;28;20132;-85
2023/04/14 07:39:30;;;;;;;1.50;1.00;;;9.40;99.90;;;;;;5005379;28;20065;-84
2023/04/14 07:42:00;;;;;;;2.15;0.95;;;9.50;99.90;;;;;;5009728;28;20382;-85
2023/04/14 07:44:27;;;;;;;2.42;1.02;;;9.70;99.90;;;;;;4997340;28;20046;-84
2023/04/14 07:46:54;;;;;;;1.52;0.70;;;9.80;99.90;;;;;;5006622;28;20080;-84
2023/04/14 07:49:21;;;;;;;1.88;0.88;;;9.90;99.90;;;;;;5007220;28;20065;-84
2023/04/14 07:51:49;;;;;;;0.60;0.50;;;10.00;99.90;;;;;;5000781;28;20061;-84
2023/04/14 07:54:16;;;;;;;2.03;0.70;;;10.10;99.90;;;;;;5018883;28;20071;-84
2023/04/14 07:56:43;;;;;;;1.05;0.60;;;10.20;99.90;;;;;;5020665;28;20115;-84
2023/04/14 07:59:10;;;;;;;1.30;0.82;;;10.40;99.90;;;;;;5020076;28;20134;-84
2023/04/14 08:01:37;;;;;;;1.63;0.75;;;10.40;99.90;;;;;;4998693;28;20049;-83
2023/04/14 08:04:04;;;;;;;0.80;0.55;;;10.40;99.90;;;;;;5017387;28;20054;-84
2023/04/14 08:06:32;;;;;;;1.83;0.82;;;10.50;99.90;;;;;;4995458;28;20136;-85
2023/04/14 08:09:01;;;;;;;1.38;0.70;;;10.50;99.90;;;;;;5004621;28;20081;-84
2023/04/14 08:11:29;;;;;;;1.02;0.70;;;10.60;99.90;;;;;;4999456;28;20045;-85
2023/04/14 08:13:56;;;;;;;0.70;0.60;;;10.80;99.90;;;;;;4999165;28;20081;-84
2023/04/14 08:16:24;;;;;;;1.05;0.73;;;10.90;99.90;;;;;;5015859;28;20051;-84
2023/04/14 08:18:51;;;;;;;2.60;0.90;;;10.90;99.90;;;;;;5007284;28;20433;-83
2023/04/14 08:21:19;;;;;;;2.53;1.00;;;10.80;99.90;;;;;;5015721;28;20411;-83
2023/04/14 08:23:47;;;;;;;2.05;0.80;;;10.80;99.90;;;;;;4998469;28;20082;-83
2023/04/14 08:26:14;;;;;;;0.90;0.68;;;10.90;99.90;;;;;;5038060;28;20060;-83
2023/04/14 08:28:41;;;;;;;1.70;0.88;;;10.90;99.90;;;;;;5000938;28;20068;-83
2023/04/14 08:31:08;;;;;;;1.75;0.77;;;11.00;99.90;;;;;;5007384;28;20435;-84
2023/04/14 08:33:35;;;;;;;1.08;0.70;;;11.00;99.90;;;;;;4992071;28;20627;-84
2023/04/14 08:36:04;;;;;;;3.60;1.00;;;11.00;99.90;;;;;;5002466;28;20470;-84
2023/04/14 08:38:31;;;;;;;1.27;0.80;;;11.00;99.90;;;;;;5012137;28;20057;-82
2023/04/14 08:41:00;;;;;;;2.28;0.80;;;11.00;99.90;;;;;;5005423;28;20754;-83
2023/04/14 08:43:27;;;;;;;1.15;0.90;;;11.10;99.90;;;;;;5018302;28;20065;-85
2023/04/14 08:45:54;;;;;;;2.08;1.10;;;11.30;99.90;;;;;;5005694;28;20156;-83
2023/04/14 08:48:21;;;;;;;1.33;0.80;;;11.30;99.90;;;;;;5019794;28;20057;-84
2023/04/14 08:51:13;;;;;;;1.52;0.85;;;11.40;99.90;;;;;;5007387;28;20133;-88
2023/04/14 08:53:42;;;;;;;1.80;0.85;;;11.40;99.90;;;;;;5005774;28;20085;-85
2023/04/14 08:56:10;;;;;;;1.45;1.08;;;11.50;99.90;;;;;;5002589;28;20700;-85
2023/04/14 08:58:37;;;;;;;1.60;0.70;;;11.60;99.90;;;;;;5009036;28;20349;-85
2023/04/14 09:01:06;;;;;;;2.88;0.98;;;11.70;99.90;;;;;;5004496;28;20072;-85
2023/04/14 09:03:33;;;;;;;1.52;0.80;;;11.80;99.90;;;;;;5005248;28;20219;-84
2023/04/14 09:06:01;;;;;;;1.50;1.02;;;11.80;99.90;;;;;;5016000;28;20059;-85
2023/04/14 09:08:32;;;;;;;2.35;1.05;;;11.80;99.90;;;;;;5014202;28;20053;-84
2023/04/14 09:11:02;;;;;;;1.65;0.95;;;11.90;99.90;;;;;;5020425;28;20488;-85
2023/04/14 09:13:30;;;;;;;1.23;0.80;;;12.00;99.90;;;;;;5004050;28;20131;-85
2023/04/14 09:15:58;;;;;;;2.42;1.00;;;12.10;99.90;;;;;;5004362;28;20115;-85
2023/04/14 09:18:26;;;;;;;1.05;0.88;;;12.30;99.90;;;;;;5004933;28;20053;-84
2023/04/14 09:20:54;;;;;;;1.83;1.00;;;12.40;99.90;;;;;;5004151;28;20092;-85
2023/04/14 09:23:41;;;;;;;2.05;0.98;;;12.40;99.90;;;;;;5021875;28;20105;-85
2023/04/14 09:26:09;;;;;;;1.92;0.90;;;12.40;99.90;;;;;;5004944;28;20041;-85
2023/04/14 09:28:36;;;;;;;1.98;0.60;;;12.30;99.90;;;;;;5021090;28;20095;-85
2023/04/14 09:31:03;;;;;;;2.20;0.90;;;12.30;99.90;;;;;;5004443;28;20180;-85
2023/04/14 09:33:31;;;;;;;1.27;0.90;;;12.30;99.90;;;;;;5003872;28;20136;-85
2023/04/14 09:35:58;;;;;;;0.73;0.70;;;12.30;99.90;;;;;;5007884;28;20145;-84
2023/04/14 09:38:35;;;;;;;0.98;0.70;;;12.30;99.90;;;;;;5002903;28;20091;-84
2023/04/14 09:41:05;;;;;;;1.92;0.82;;;12.30;99.90;;;;;;5001696;28;20080;-83
2023/04/14 09:43:33;;;;;;;1.92;0.77;;;12.20;99.90;;;;;;5000995;28;20079;-85
2023/04/14 09:46:09;;;;;;;1.10;0.70;;;12.10;99.90;;;;;;4986025;28;20511;-82
2023/04/14 09:48:52;;;;;;;1.15;0.60;;;12.20;99.90;;;;;;5001700;28;20068;-84
2023/04/14 09:51:29;;;;;;;1.52;0.80;;;12.20;99.90;;;;;;5019225;28;20052;-84
2023/04/14 09:54:01;;;;;;;2.13;0.80;;;12.30;99.90;;;;;;4982646;28;20046;-84
2023/04/14 09:56:28;;;;;;;1.00;0.65;;;12.30;99.90;;;;;;5002954;28;20112;-83
2023/04/14 09:58:59;;;;;;;1.30;0.75;;;12.40;99.90;;;;;;5003343;28;20147;-84
2023/04/14 10:01:29;;;;;;;1.77;0.80;;;12.30;99.90;;;;;;5003661;28;20065;-85
2023/04/14 10:03:57;;;;;;;0.50;0.50;;;12.20;99.90;;;;;;4996668;28;20054;-84
2023/04/14 10:06:24;;;;;;;1.63;0.95;;;12.20;99.90;;;;;;4991454;28;20064;-84
2023/04/14 10:08:53;;;;;;;1.65;0.70;;;12.20;99.90;;;;;;4995140;28;20046;-84
2023/04/14 10:11:24;;;;;;;0.80;0.65;;;12.40;99.90;;;;;;5000570;28;20109;-84
2023/04/14 10:13:56;;;;;;;1.83;0.77;;;12.60;99.90;;;;;;5016820;28;20089;-83
2023/04/14 10:16:23;;;;;;;0.70;0.60;;;12.80;99.90;;;;;;4983063;28;20551;-83
2023/04/14 10:18:51;;;;;;;0.45;0.45;;;13.00;99.90;;;;;;4965017;28;20061;-84
2023/04/14 10:21:21;;;;;;;1.33;0.70;;;13.20;99.90;;;;;;4983904;28;20152;-83
2023/04/14 10:23:48;;;;;;;1.15;0.73;;;13.30;99.90;;;;;;4996957;28;20060;-83
2023/04/14 10:26:15;;;;;;;1.25;0.90;;;13.10;99.90;;;;;;4981104;28;20073;-83
2023/04/14 10:28:43;;;;;;;0.70;0.60;;;13.00;99.90;;;;;;4987843;28;20610;-82
2023/04/14 10:31:35;;;;;;;1.23;0.52;;;12.70;99.90;;;;;;5008899;28;20166;-83
2023/04/14 10:34:11;;;;;;;3.97;1.23;;;12.30;99.90;;;;;;4999749;28;20057;-83
2023/04/14 10:36:38;;;;;;;1.67;0.80;;;12.00;99.90;;;;;;5015446;28;20383;-83
2023/04/14 10:39:06;;;;;;;1.10;0.63;;;11.60;99.90;;;;;;5015459;28;20126;-83
2023/04/14 10:41:46;;;;;;;1.23;0.60;;;11.50;99.90;;;;;;5016292;28;20115;-83
2023/04/14 10:44:27;;;;;;;0.68;0.57;;;11.40;99.90;;;;;;5011996;28;20058;-82
2023/04/14 10:46:55;;;;;;;1.15;0.70;;;11.40;99.90;;;;;;4998619;28;20748;-83
2023/04/14 10:49:29;;;;;;;0.60;0.50;;;11.40;99.90;;;;;;5020203;28;20045;-83
2023/04/14 10:52:00;;;;;;;0.95;0.60;;;11.40;99.90;;;;;;5028177;28;20164;-82
2023/04/14 10:54:27;;;;;;;0.77;0.70;;;11.30;99.90;;;;;;4995269;28;20104;-84
2023/04/14 10:57:08;;;;;;;1.23;0.70;;;11.20;99.90;;;;;;4980426;28;20083;-83
2023/04/14 10:59:41;;;;;;;1.75;0.70;;;11.20;99.90;;;;;;4981088;28;20062;-82
2023/04/14 11:02:30;;;;;;;0.88;0.65;;;11.30;99.90;;;;;;4989694;28;20157;-84
2023/04/14 11:05:05;;;;;;;0.98;0.50;;;11.20;99.90;;;;;;5016540;28;20053;-83
2023/04/14 11:07:40;;;;;;;0.88;0.60;;;11.20;99.90;;;;;;5016414;28;20081;-83
2023/04/14 11:10:15;;;;;;;0.75;0.75;;;11.30;99.90;;;;;;5000102;28;20050;-83
2023/04/14 11:12:43;;;;;;;0.85;0.73;;;11.50;99.90;;;;;;5027138;28;20045;-83
2023/04/14 11:15:10;;;;;;;1.23;0.80;;;11.80;99.90;;;;;;4996993;28;20409;-83
2023/04/14 11:17:41;;;;;;;0.60;0.60;;;12.10;99.90;;;;;;4994181;28;20143;-83
2023/04/14 11:20:16;;;;;;;0.77;0.60;;;12.20;99.90;;;;;;4997117;28;20060;-83
2023/04/14 11:22:44;;;;;;;1.23;0.60;;;12.40;99.90;;;;;;4979456;28;20085;-84
2023/04/14 11:25:13;;;;;;;1.05;0.70;;;12.50;99.90;;;;;;4999330;28;20061;-82
2023/04/14 11:27:40;;;;;;;1.20;0.70;;;12.70;99.90;;;;;;4998046;28;20054;-83
2023/04/14 11:30:15;;;;;;;0.90;0.55;;;12.90;99.90;;;;;;5017417;28;20088;-88
2023/04/14 11:32:50;;;;;;;1.15;0.60;;;13.00;99.90;;;;;;5018302;28;20049;-92
2023/04/14 11:35:21;;;;;;;0.73;0.60;;;12.90;99.90;;;;;;5022572;28;20057;-89
2023/04/14 11:37:57;;;;;;;0.57;0.52;;;13.00;99.90;;;;;;4998930;28;20053;-89
2023/04/14 11:40:25;;;;;;;1.05;0.63;;;13.20;99.90;;;;;;4986220;28;20069;-88
2023/04/14 11:42:53;;;;;;;0.75;0.70;;;13.20;99.90;;;;;;5013469;28;20108;-91
2023/04/14 11:45:20;;;;;;;1.50;0.60;;;13.20;99.90;;;;;;5009763;28;20050;-89
2023/04/14 11:47:58;;;;;;;0.50;0.50;;;13.40;99.90;;;;;;5008009;28;20064;-86
2023/04/14 11:50:26;;;;;;;1.35;0.80;;;13.60;99.90;;;;;;5001137;28;20049;-89
2023/04/14 11:53:02;;;;;;;0.80;0.60;;;13.70;99.90;;;;;;5003318;28;20054;-88
2023/04/14 11:55:30;;;;;;;0.55;0.52;;;13.60;99.90;;;;;;5014054;28;20057;-90
2023/04/14 11:57:58;;;;;;;0.65;0.60;;;13.60;99.90;;;;;;5006979;28;20088;-90
2023/04/14 12:00:26;;;;;;;0.60;0.50;;;13.60;99.90;;;;;;5012084;28;20488;-87
2023/04/14 12:02:53;;;;;;;1.23;0.60;;;13.80;99.90;;;;;;5010729;28;20072;-88
2023/04/14 12:05:24;;;;;;;0.65;0.43;;;14.10;99.90;;;;;;5024520;28;20384;-88
2023/04/14 12:07:57;;;;;;;1.02;0.60;;;14.20;99.90;;;;;;5004950;28;20787;-88
2023/04/14 12:10:25;;;;;;;1.13;0.60;;;14.30;99.90;;;;;;5008152;28;20530;-88
2023/04/14 12:13:05;;;;;;;0.57;0.50;;;14.20;99.90;;;;;;5020519;28;20053;-88
2023/04/14 12:15:36;;;;;;;0.85;0.50;;;14.20;99.90;;;;;;5009504;28;20150;-87
2023/04/14 12:18:12;;;;;;;0.63;0.55;;;14.30;99.90;;;;;;5023531;28;20561;-88
2023/04/14 12:20:47;;;;;;;0.50;0.50;;;14.40;99.90;;;;;;5016655;28;20054;-88
2023/04/14 12:23:14;;;;;;;0.60;0.60;;;14.40;99.90;;;;;;5007442;28;20925;-88
2023/04/14 12:25:41;;;;;;;0.50;0.50;;;14.20;99.90;;;;;;5009490;28;20128;-87
2023/04/14 12:28:08;;;;;;;0.63;0.50;;;14.30;99.90;;;;;;5009662;28;20053;-88
2023/04/14 12:30:36;;;;;;;0.40;0.40;;;14.20;99.90;;;;;;5010017;28;20548;-88
2023/04/14 12:33:12;;;;;;;0.73;0.50;;;14.10;99.90;;;;;;5005746;28;20065;-88
2023/04/14 12:35:39;;;;;;;0.20;0.20;;;14.00;99.90;;;;;;5006433;28;20195;-88
2023/04/14 12:38:13;;;;;;;0.30;0.30;;;14.10;99.90;;;;;;5009550;28;20115;-88
2023/04/14 12:40:44;;;;;;;0.57;0.43;;;14.40;99.90;;;;;;5042058;28;20160;-88
2023/04/14 12:43:15;;;;;;;0.57;0.38;;;14.40;99.90;;;;;;5016290;28;20050;-90
2023/04/14 12:45:45;;;;;;;0.70;0.50;;;14.40;99.90;;;;;;5029889;28;20049;-87
2023/04/14 12:48:12;;;;;;;0.30;0.30;;;14.60;99.90;;;;;;5012914;28;20477;-89
2023/04/14 12:50:42;;;;;;;1.10;0.50;;;14.50;99.90;;;;;;5027995;28;20056;-92
2023/04/14 12:53:27;;;;;;;0.93;0.63;;;14.30;99.90;;;;;;5026845;28;20755;-92
2023/04/14 12:56:16;;;;;;;0.50;0.50;;;14.20;99.90;;;;;;5019823;28;20053;-89
2023/04/14 12:58:47;;;;;;;0.70;0.50;;;14.10;99.90;;;;;;5027277;28;20057;-92
2023/04/14 13:01:18;;;;;;;0.55;0.50;;;14.40;99.90;;;;;;5010760;28;20488;-88
2023/04/14 13:03:54;;;;;;;0.50;0.40;;;14.80;99.90;;;;;;5009572;28;20144;-88
2023/04/14 13:06:22;;;;;;;0.40;0.40;;;15.00;99.90;;;;;;5007728;28;20075;-88